createdAt,value
2023-05-05T00:00:53.348Z,22.12
2023-05-05T00:01:53.424Z,22.20
2023-05-05T00:02:53.370Z,22.09
2023-05-05T00:03:53.379Z,22.25
2023-05-05T00:04:53.341Z,22.12
2023-05-05T00:05:53.351Z,22.07
2023-05-05T00:06:53.348Z,22.16
2023-05-05T00:07:53.349Z,22.12
2023-05-05T00:08:53.353Z,22.07
2023-05-05T00:09:53.356Z,22.09
2023-05-05T00:10:53.365Z,22.16
2023-05-05T00:11:53.357Z,22.13
2023-05-05T00:12:53.415Z,22.06
2023-05-05T00:13:53.358Z,22.09
2023-05-05T00:14:53.364Z,22.13
2023-05-05T00:15:53.471Z,22.09
2023-05-05T00:16:53.437Z,22.13
2023-05-05T00:17:53.512Z,22.12
2023-05-05T00:18:53.371Z,22.12
2023-05-05T00:19:53.525Z,22.06
2023-05-05T00:20:53.371Z,22.07
2023-05-05T00:21:53.387Z,22.10
2023-05-05T00:22:53.378Z,22.16
2023-05-05T00:23:53.382Z,22.12
2023-05-05T00:24:53.389Z,22.13
2023-05-05T00:25:53.372Z,22.10
2023-05-05T00:26:53.386Z,22.13
2023-05-05T00:27:53.394Z,22.13
2023-05-05T00:28:53.393Z,22.16
2023-05-05T00:29:53.393Z,22.16
2023-05-05T00:30:53.425Z,22.13
2023-05-05T00:31:53.426Z,22.10
2023-05-05T00:32:53.438Z,22.09
2023-05-05T00:33:53.400Z,22.13
2023-05-05T00:34:53.400Z,22.07
2023-05-05T00:35:53.406Z,22.12
2023-05-05T00:36:53.407Z,22.12
2023-05-05T00:37:53.404Z,22.13
2023-05-05T00:38:53.404Z,22.12
2023-05-05T00:39:53.417Z,22.16
2023-05-05T00:40:53.425Z,22.09
2023-05-05T00:41:53.421Z,22.07
2023-05-05T00:42:53.440Z,22.14
2023-05-05T00:43:53.419Z,22.12
2023-05-05T00:44:53.428Z,22.13
2023-05-05T00:45:53.421Z,22.13
2023-05-05T00:46:53.427Z,22.10
2023-05-05T00:47:53.498Z,22.10
2023-05-05T00:48:53.523Z,22.19
2023-05-05T00:49:53.436Z,22.16
2023-05-05T00:50:53.432Z,22.13
2023-05-05T00:51:53.428Z,22.06
2023-05-05T00:52:53.435Z,22.09
2023-05-05T00:53:53.456Z,22.12
2023-05-05T00:54:53.438Z,22.14
2023-05-05T00:55:53.440Z,22.12
2023-05-05T00:56:53.455Z,22.16
2023-05-05T00:57:53.441Z,22.10
2023-05-05T00:58:53.447Z,22.25
2023-05-05T00:59:53.450Z,22.20
2023-05-05T01:00:53.448Z,22.16
2023-05-05T01:01:53.475Z,22.16
2023-05-05T01:02:53.525Z,22.14
2023-05-05T01:03:53.590Z,22.12
2023-05-05T01:04:53.459Z,22.17
2023-05-05T01:05:53.456Z,22.10
2023-05-05T01:06:53.460Z,22.10
2023-05-05T01:07:53.469Z,22.09
2023-05-05T01:08:53.465Z,22.09
2023-05-05T01:10:01.480Z,22.12
2023-05-05T01:10:53.465Z,22.10
2023-05-05T01:11:53.465Z,22.14
2023-05-05T01:12:53.500Z,22.12
2023-05-05T01:13:53.483Z,22.13
2023-05-05T01:14:53.475Z,22.16
2023-05-05T01:15:53.580Z,22.12
2023-05-05T01:16:53.484Z,22.07
2023-05-05T01:17:53.577Z,22.13
2023-05-05T01:18:53.481Z,22.13
2023-05-05T01:19:53.521Z,22.16
2023-05-05T01:20:53.494Z,22.13
2023-05-05T01:21:53.499Z,22.10
2023-05-05T01:22:53.489Z,22.12
2023-05-05T01:23:53.499Z,22.13
2023-05-05T01:24:53.489Z,22.10
2023-05-05T01:25:53.490Z,22.09
2023-05-05T01:26:53.494Z,22.07
2023-05-05T01:27:53.496Z,22.13
2023-05-05T01:28:53.500Z,22.12
2023-05-05T01:29:53.499Z,22.16
2023-05-05T01:30:53.501Z,22.12
2023-05-05T01:31:53.645Z,22.13
2023-05-05T01:32:53.529Z,22.13
2023-05-05T01:33:53.505Z,22.14
2023-05-05T01:34:53.512Z,22.12
2023-05-05T01:35:53.534Z,22.12
2023-05-05T01:36:53.514Z,22.09
2023-05-05T01:37:53.512Z,22.07
2023-05-05T01:38:53.519Z,22.09
2023-05-05T01:39:53.517Z,22.12
2023-05-05T01:40:53.519Z,22.09
2023-05-05T01:41:53.524Z,22.09
2023-05-05T01:42:53.520Z,22.09
2023-05-05T01:43:53.524Z,22.07
2023-05-05T01:44:53.529Z,22.07
2023-05-05T01:45:53.560Z,22.09
2023-05-05T01:46:53.526Z,22.12
2023-05-05T01:47:53.577Z,22.07
2023-05-05T01:48:53.541Z,22.12
2023-05-05T01:49:53.530Z,22.17
2023-05-05T01:50:53.535Z,22.06
2023-05-05T01:51:53.564Z,22.17
2023-05-05T01:52:53.535Z,22.12
2023-05-05T01:53:53.535Z,22.14
2023-05-05T01:54:53.546Z,22.12
2023-05-05T01:55:53.544Z,22.04
2023-05-05T01:56:53.542Z,22.01
2023-05-05T01:57:53.551Z,22.06
2023-05-05T01:58:53.546Z,22.04
2023-05-05T01:59:53.547Z,22.07
2023-05-05T02:00:53.575Z,22.01
2023-05-05T02:01:53.561Z,22.12
2023-05-05T02:02:53.608Z,22.09
2023-05-05T02:03:53.561Z,22.13
2023-05-05T02:04:53.606Z,22.09
2023-05-05T02:05:53.558Z,21.99
2023-05-05T02:06:53.557Z,22.09
2023-05-05T02:07:53.582Z,21.99
2023-05-05T02:08:53.570Z,22.06
2023-05-05T02:09:53.562Z,22.12
2023-05-05T02:10:53.576Z,22.02
2023-05-05T02:11:53.570Z,22.12
2023-05-05T02:12:53.628Z,22.13
2023-05-05T02:13:53.614Z,22.13
2023-05-05T02:14:53.579Z,22.04
2023-05-05T02:15:53.598Z,22.06
2023-05-05T02:16:53.580Z,22.07
2023-05-05T02:17:53.583Z,22.04
2023-05-05T02:18:53.579Z,22.10
2023-05-05T02:19:53.590Z,22.02
2023-05-05T02:20:53.599Z,21.99
2023-05-05T02:21:53.607Z,22.02
2023-05-05T02:22:53.592Z,22.02
2023-05-05T02:23:53.618Z,21.99
2023-05-05T02:24:53.647Z,22.07
2023-05-05T02:25:53.596Z,22.07
2023-05-05T02:26:53.601Z,22.06
2023-05-05T02:27:53.607Z,22.09
2023-05-05T02:28:53.608Z,22.02
2023-05-05T02:29:53.608Z,22.09
2023-05-05T02:30:53.616Z,22.04
2023-05-05T02:31:53.685Z,22.04
2023-05-05T02:32:53.706Z,22.04
2023-05-05T02:33:53.611Z,22.01
2023-05-05T02:34:53.882Z,22.16
2023-05-05T02:35:53.614Z,22.07
2023-05-05T02:36:53.629Z,22.02
2023-05-05T02:37:53.622Z,22.07
2023-05-05T02:38:53.621Z,22.01
2023-05-05T02:39:53.640Z,22.12
2023-05-05T02:40:53.623Z,22.02
2023-05-05T02:41:53.644Z,22.02
2023-05-05T02:42:53.673Z,22.01
2023-05-05T02:43:53.637Z,22.10
2023-05-05T02:44:53.628Z,22.07
2023-05-05T02:45:53.631Z,22.09
2023-05-05T02:46:53.667Z,22.04
2023-05-05T02:47:53.708Z,21.99
2023-05-05T02:48:53.643Z,22.13
2023-05-05T02:49:53.792Z,22.10
2023-05-05T02:50:53.640Z,22.04
2023-05-05T02:51:53.651Z,22.06
2023-05-05T02:52:53.650Z,22.06
2023-05-05T02:53:53.643Z,22.07
2023-05-05T02:54:53.644Z,22.04
2023-05-05T02:55:53.672Z,22.07
2023-05-05T02:56:53.659Z,22.02
2023-05-05T02:57:53.650Z,22.06
2023-05-05T02:58:53.648Z,22.07
2023-05-05T02:59:53.806Z,22.02
2023-05-05T03:00:53.662Z,21.99
2023-05-05T03:01:53.722Z,22.07
2023-05-05T03:02:53.750Z,21.99
2023-05-05T03:03:53.736Z,21.98
2023-05-05T03:04:53.663Z,22.02
2023-05-05T03:05:53.675Z,22.04
2023-05-05T03:06:53.665Z,22.02
2023-05-05T03:07:53.674Z,22.01
2023-05-05T03:08:53.670Z,22.02
2023-05-05T03:09:53.674Z,21.99
2023-05-05T03:10:53.670Z,22.01
2023-05-05T03:11:53.703Z,22.12
2023-05-05T03:12:53.723Z,22.07
2023-05-05T03:13:53.683Z,22.06
2023-05-05T03:14:53.688Z,22.06
2023-05-05T03:15:53.702Z,22.01
2023-05-05T03:16:53.698Z,22.09
2023-05-05T03:17:53.729Z,22.09
2023-05-05T03:18:53.688Z,22.02
2023-05-05T03:19:53.685Z,22.02
2023-05-05T03:20:53.700Z,22.07
2023-05-05T03:21:53.693Z,22.04
2023-05-05T03:22:53.687Z,22.07
2023-05-05T03:23:53.689Z,22.01
2023-05-05T03:24:53.691Z,22.01
2023-05-05T03:25:53.694Z,22.02
2023-05-05T03:26:53.700Z,22.02
2023-05-05T03:27:53.722Z,22.07
2023-05-05T03:28:53.702Z,22.04
2023-05-05T03:29:53.699Z,22.07
2023-05-05T03:30:53.701Z,22.07
2023-05-05T03:31:53.723Z,22.02
2023-05-05T03:32:53.725Z,21.99
2023-05-05T03:33:53.708Z,22.07
2023-05-05T03:34:53.710Z,22.02
2023-05-05T03:35:53.712Z,22.09
2023-05-05T03:36:53.716Z,22.02
2023-05-05T03:37:53.713Z,22.09
2023-05-05T03:38:53.712Z,21.99
2023-05-05T03:39:53.716Z,22.10
2023-05-05T03:40:53.721Z,22.07
2023-05-05T03:41:53.718Z,21.98
2023-05-05T03:42:53.717Z,22.09
2023-05-05T03:43:53.759Z,22.02
2023-05-05T03:44:53.730Z,22.04
2023-05-05T03:45:53.758Z,22.09
2023-05-05T03:46:53.730Z,22.02
2023-05-05T03:47:53.739Z,22.07
2023-05-05T03:48:53.733Z,22.02
2023-05-05T03:49:53.757Z,22.09
2023-05-05T03:50:53.738Z,22.04
2023-05-05T03:51:53.743Z,22.01
2023-05-05T03:52:53.736Z,22.01
2023-05-05T03:53:53.744Z,22.10
2023-05-05T03:54:53.741Z,22.06
2023-05-05T03:55:53.741Z,22.09
2023-05-05T03:56:53.758Z,22.02
2023-05-05T03:57:53.750Z,22.04
2023-05-05T03:58:53.744Z,21.99
2023-05-05T03:59:53.779Z,22.02
2023-05-05T04:00:53.754Z,22.06
2023-05-05T04:01:53.829Z,22.04
2023-05-05T04:02:53.818Z,22.07
2023-05-05T04:03:53.798Z,22.02
2023-05-05T04:04:53.759Z,22.07
2023-05-05T04:05:53.772Z,21.99
2023-05-05T04:06:53.779Z,22.07
2023-05-05T04:07:53.781Z,22.09
2023-05-05T04:08:53.781Z,22.04
2023-05-05T04:09:53.766Z,22.02
2023-05-05T04:10:53.768Z,21.99
2023-05-05T04:11:53.772Z,22.09
2023-05-05T04:12:53.847Z,22.01
2023-05-05T04:13:53.776Z,22.06
2023-05-05T04:14:53.776Z,22.09
2023-05-05T04:15:53.829Z,22.09
2023-05-05T04:16:53.778Z,22.10
2023-05-05T04:17:53.801Z,22.09
2023-05-05T04:18:53.790Z,22.07
2023-05-05T04:19:53.795Z,22.02
2023-05-05T04:20:53.793Z,22.07
2023-05-05T04:21:53.788Z,22.02
2023-05-05T04:22:53.803Z,22.07
2023-05-05T04:23:53.811Z,22.02
2023-05-05T04:24:53.792Z,22.01
2023-05-05T04:25:53.795Z,21.99
2023-05-05T04:26:53.801Z,22.12
2023-05-05T04:27:53.803Z,22.07
2023-05-05T04:28:53.816Z,22.10
2023-05-05T04:29:53.951Z,22.04
2023-05-05T04:30:53.858Z,22.01
2023-05-05T04:31:53.834Z,22.06
2023-05-05T04:32:53.901Z,22.01
2023-05-05T04:33:53.805Z,22.02
2023-05-05T04:34:53.809Z,22.07
2023-05-05T04:35:53.815Z,21.98
2023-05-05T04:36:53.810Z,22.06
2023-05-05T04:37:53.814Z,22.07
2023-05-05T04:38:53.867Z,22.02
2023-05-05T04:39:53.831Z,22.02
2023-05-05T04:40:53.827Z,22.02
2023-05-05T04:41:53.830Z,22.02
2023-05-05T04:42:53.859Z,22.07
2023-05-05T04:43:53.832Z,22.07
2023-05-05T04:44:53.826Z,22.12
2023-05-05T04:45:53.833Z,22.09
2023-05-05T04:46:53.905Z,22.10
2023-05-05T04:47:53.904Z,22.13
2023-05-05T04:48:53.834Z,22.10
2023-05-05T04:49:53.835Z,22.12
2023-05-05T04:50:53.838Z,22.09
2023-05-05T04:51:53.861Z,22.12
2023-05-05T04:52:53.856Z,22.09
2023-05-05T04:53:53.841Z,22.14
2023-05-05T04:54:53.842Z,22.13
2023-05-05T04:55:53.844Z,22.10
2023-05-05T04:56:53.842Z,22.13
2023-05-05T04:57:53.844Z,22.13
2023-05-05T04:58:53.857Z,22.12
2023-05-05T04:59:53.857Z,22.23
2023-05-05T05:00:53.861Z,22.13
2023-05-05T05:01:53.878Z,22.12
2023-05-05T05:02:53.951Z,22.07
2023-05-05T05:03:53.945Z,22.12
2023-05-05T05:04:53.864Z,22.13
2023-05-05T05:05:53.873Z,22.07
2023-05-05T05:06:53.877Z,22.04
2023-05-05T05:07:53.863Z,22.13
2023-05-05T05:08:53.873Z,22.14
2023-05-05T05:09:53.878Z,22.12
2023-05-05T05:10:53.865Z,22.09
2023-05-05T05:11:53.879Z,21.95
2023-05-05T05:12:53.908Z,21.91
2023-05-05T05:13:53.889Z,22.06
2023-05-05T05:14:53.884Z,22.12
2023-05-05T05:15:53.883Z,22.07
2023-05-05T05:16:53.899Z,22.13
2023-05-05T05:17:53.923Z,22.13
2023-05-05T05:18:53.882Z,22.12
2023-05-05T05:19:53.910Z,22.09
2023-05-05T05:20:53.893Z,22.13
2023-05-05T05:21:53.894Z,22.09
2023-05-05T05:22:53.893Z,22.10
2023-05-05T05:23:53.886Z,22.07
2023-05-05T05:24:53.896Z,22.19
2023-05-05T05:25:53.902Z,22.12
2023-05-05T05:26:53.927Z,22.07
2023-05-05T05:28:06.076Z,22.12
2023-05-05T05:28:53.899Z,22.14
2023-05-05T05:29:53.956Z,22.16
2023-05-05T05:30:53.904Z,22.17
2023-05-05T05:31:54.074Z,22.23
2023-05-05T05:32:53.930Z,22.16
2023-05-05T05:33:53.912Z,22.25
2023-05-05T05:34:53.910Z,22.28
2023-05-05T05:35:53.937Z,22.25
2023-05-05T05:36:53.912Z,22.29
2023-05-05T05:37:53.920Z,22.34
2023-05-05T05:38:53.921Z,22.32
2023-05-05T05:39:53.922Z,22.25
2023-05-05T05:40:53.923Z,22.23
2023-05-05T05:41:53.916Z,22.25
2023-05-05T05:42:53.932Z,22.25
2023-05-05T05:43:53.926Z,22.31
2023-05-05T05:44:53.926Z,22.27
2023-05-05T05:45:53.959Z,22.29
2023-05-05T05:46:53.933Z,22.27
2023-05-05T05:47:53.981Z,22.22
2023-05-05T05:48:53.933Z,22.27
2023-05-05T05:49:53.934Z,22.27
2023-05-05T05:50:53.944Z,22.25
2023-05-05T05:51:53.969Z,22.27
2023-05-05T05:52:53.936Z,22.23
2023-05-05T05:53:53.940Z,22.25
2023-05-05T05:54:53.973Z,22.34
2023-05-05T05:55:53.964Z,22.23
2023-05-05T05:56:53.949Z,22.25
2023-05-05T05:57:53.951Z,22.28
2023-05-05T05:58:53.947Z,22.23
2023-05-05T05:59:54.009Z,22.16
2023-05-05T06:00:53.952Z,22.29
2023-05-05T06:01:53.955Z,22.31
2023-05-05T06:02:54.004Z,22.16
2023-05-05T06:03:54.023Z,22.16
2023-05-05T06:04:53.964Z,22.20
2023-05-05T06:05:53.990Z,22.27
2023-05-05T06:06:53.964Z,22.20
2023-05-05T06:07:53.986Z,22.10
2023-05-05T06:08:53.974Z,22.17
2023-05-05T06:09:53.976Z,22.22
2023-05-05T06:10:53.973Z,22.19
2023-05-05T06:11:53.968Z,22.16
2023-05-05T06:12:54.069Z,22.19
2023-05-05T06:13:53.986Z,22.19
2023-05-05T06:14:53.977Z,22.19
2023-05-05T06:15:53.996Z,22.14
2023-05-05T06:16:53.979Z,22.19
2023-05-05T06:17:54.034Z,22.19
2023-05-05T06:18:53.994Z,22.16
2023-05-05T06:19:54.584Z,22.25
2023-05-05T06:20:53.998Z,22.20
2023-05-05T06:21:54.012Z,22.17
2023-05-05T06:22:54.009Z,22.14
2023-05-05T06:23:54.019Z,22.19
2023-05-05T06:24:53.992Z,22.16
2023-05-05T06:25:54.003Z,22.13
2023-05-05T06:26:54.006Z,22.22
2023-05-05T06:27:54.005Z,22.13
2023-05-05T06:28:54.010Z,22.14
2023-05-05T06:29:54.026Z,22.16
2023-05-05T06:30:53.999Z,22.17
2023-05-05T06:31:54.179Z,22.19
2023-05-05T06:32:54.040Z,22.13
2023-05-05T06:33:54.022Z,22.19
2023-05-05T06:34:54.167Z,22.09
2023-05-05T06:35:54.017Z,22.14
2023-05-05T06:36:54.178Z,22.10
2023-05-05T06:37:54.028Z,22.07
2023-05-05T06:38:54.024Z,22.07
2023-05-05T06:39:54.051Z,22.14
2023-05-05T06:40:54.024Z,22.14
2023-05-05T06:41:54.033Z,22.04
2023-05-05T06:42:54.047Z,22.10
2023-05-05T06:43:54.036Z,22.10
2023-05-05T06:44:54.040Z,22.16
2023-05-05T06:45:54.047Z,22.17
2023-05-05T06:46:54.072Z,22.10
2023-05-05T06:47:54.074Z,22.07
2023-05-05T06:48:54.059Z,22.13
2023-05-05T06:49:54.043Z,22.19
2023-05-05T06:50:54.063Z,22.19
2023-05-05T06:51:54.048Z,22.19
2023-05-05T06:52:54.060Z,22.22
2023-05-05T06:53:54.057Z,22.23
2023-05-05T06:54:54.102Z,22.22
2023-05-05T06:55:54.146Z,22.10
2023-05-05T06:56:54.052Z,22.19
2023-05-05T06:57:54.065Z,22.17
2023-05-05T06:58:54.065Z,22.17
2023-05-05T06:59:54.071Z,22.16
2023-05-05T07:00:54.136Z,22.17
2023-05-05T07:01:54.070Z,22.14
2023-05-05T07:02:54.120Z,22.16
2023-05-05T07:03:54.105Z,22.14
2023-05-05T07:04:54.068Z,22.20
2023-05-05T07:05:54.076Z,22.17
2023-05-05T07:06:54.077Z,22.14
2023-05-05T07:07:54.124Z,22.22
2023-05-05T07:08:54.081Z,22.14
2023-05-05T07:09:54.089Z,22.22
2023-05-05T07:10:54.078Z,22.17
2023-05-05T07:11:54.202Z,22.17
2023-05-05T07:12:54.120Z,22.27
2023-05-05T07:13:54.094Z,22.17
2023-05-05T07:14:54.092Z,22.10
2023-05-05T07:15:54.097Z,22.16
2023-05-05T07:16:54.153Z,22.20
2023-05-05T07:17:54.223Z,22.23
2023-05-05T07:18:54.100Z,22.10
2023-05-05T07:19:54.105Z,22.09
2023-05-05T07:20:54.104Z,22.13
2023-05-05T07:21:54.112Z,22.10
2023-05-05T07:22:54.112Z,22.13
2023-05-05T07:23:54.114Z,22.12
2023-05-05T07:24:54.115Z,22.12
2023-05-05T07:25:54.115Z,22.12
2023-05-05T07:26:54.124Z,22.19
2023-05-05T07:27:54.402Z,22.13
2023-05-05T07:28:54.116Z,22.23
2023-05-05T07:29:54.114Z,22.07
2023-05-05T07:30:54.280Z,22.16
2023-05-05T07:31:54.144Z,22.13
2023-05-05T07:32:54.170Z,22.16
2023-05-05T07:33:54.136Z,22.16
2023-05-05T07:34:54.143Z,22.13
2023-05-05T07:35:54.162Z,22.23
2023-05-05T07:36:54.143Z,22.25
2023-05-05T07:37:54.131Z,22.17
2023-05-05T07:38:54.144Z,22.14
2023-05-05T07:39:54.142Z,22.22
2023-05-05T07:40:54.145Z,22.17
2023-05-05T07:41:54.146Z,22.13
2023-05-05T07:42:54.145Z,22.22
2023-05-05T07:43:54.256Z,22.16
2023-05-05T07:44:54.147Z,22.22
2023-05-05T07:45:54.165Z,22.22
2023-05-05T07:46:54.142Z,22.28
2023-05-05T07:47:54.166Z,22.25
2023-05-05T07:48:54.154Z,22.27
2023-05-05T07:49:54.157Z,22.23
2023-05-05T07:50:54.157Z,22.22
2023-05-05T07:51:54.155Z,22.23
2023-05-05T07:53:02.539Z,22.17
2023-05-05T07:53:54.157Z,22.16
2023-05-05T07:54:54.164Z,22.14
2023-05-05T07:55:54.167Z,22.17
2023-05-05T07:56:54.321Z,22.14
2023-05-05T07:57:54.169Z,22.13
2023-05-05T07:58:54.168Z,22.13
2023-05-05T07:59:54.266Z,22.14
2023-05-05T08:00:54.181Z,22.17
2023-05-05T08:01:55.006Z,22.22
2023-05-05T08:02:54.233Z,22.14
2023-05-05T08:03:54.272Z,22.10
2023-05-05T08:04:54.178Z,22.14
2023-05-05T08:05:54.177Z,22.20
2023-05-05T08:06:54.185Z,22.13
2023-05-05T08:07:54.181Z,22.22
2023-05-05T08:08:54.188Z,22.28
2023-05-05T08:09:54.188Z,22.34
2023-05-05T08:10:54.188Z,22.22
2023-05-05T08:11:54.197Z,22.23
2023-05-05T08:12:54.244Z,22.27
2023-05-05T08:13:54.200Z,22.23
2023-05-05T08:14:54.202Z,22.13
2023-05-05T08:15:54.445Z,22.23
2023-05-05T08:16:54.210Z,22.14
2023-05-05T08:17:54.254Z,22.13
2023-05-05T08:18:54.213Z,22.12
2023-05-05T08:19:54.218Z,22.27
2023-05-05T08:20:54.215Z,22.20
2023-05-05T08:21:54.215Z,22.20
2023-05-05T08:22:54.217Z,22.19
2023-05-05T08:23:54.219Z,22.23
2023-05-05T08:24:54.220Z,22.13
2023-05-05T08:25:54.220Z,22.22
2023-05-05T08:26:54.222Z,22.27
2023-05-05T08:27:54.225Z,22.17
2023-05-05T08:28:54.231Z,22.28
2023-05-05T08:29:54.226Z,22.25
2023-05-05T08:30:54.240Z,22.16
2023-05-05T08:31:54.445Z,22.29
2023-05-05T08:32:54.287Z,22.20
2023-05-05T08:33:54.240Z,22.25
2023-05-05T08:34:54.240Z,22.27
2023-05-05T08:35:54.242Z,22.32
2023-05-05T08:36:54.250Z,22.27
2023-05-05T08:37:55.967Z,22.31
2023-05-05T08:38:54.245Z,22.28
2023-05-05T08:39:54.264Z,22.31
2023-05-05T08:40:54.248Z,22.23
2023-05-05T08:41:54.412Z,22.34
2023-05-05T08:42:54.267Z,22.39
2023-05-05T08:43:54.256Z,22.25
2023-05-05T08:44:54.255Z,22.27
2023-05-05T08:45:54.254Z,22.27
2023-05-05T08:46:54.326Z,22.29
2023-05-05T08:47:54.398Z,22.34
2023-05-05T08:48:54.268Z,22.25
2023-05-05T08:49:54.262Z,22.25
2023-05-05T08:50:54.267Z,22.23
2023-05-05T08:51:54.274Z,22.28
2023-05-05T08:52:54.340Z,22.31
2023-05-05T08:53:54.282Z,22.29
2023-05-05T08:54:54.274Z,22.29
2023-05-05T08:55:54.272Z,22.16
2023-05-05T08:56:54.276Z,22.16
2023-05-05T08:57:54.280Z,22.22
2023-05-05T08:58:54.272Z,22.22
2023-05-05T08:59:54.277Z,22.13
2023-05-05T09:00:54.330Z,22.22
2023-05-05T09:01:54.476Z,22.23
2023-05-05T09:02:54.484Z,22.22
2023-05-05T09:03:54.481Z,22.19
2023-05-05T09:04:54.324Z,22.14
2023-05-05T09:05:54.292Z,22.19
2023-05-05T09:06:54.297Z,22.16
2023-05-05T09:07:54.316Z,22.10
2023-05-05T09:08:54.300Z,22.17
2023-05-05T09:09:54.297Z,22.28
2023-05-05T09:10:54.302Z,22.17
2023-05-05T09:11:54.306Z,22.13
2023-05-05T09:12:54.355Z,22.12
2023-05-05T09:13:54.310Z,22.17
2023-05-05T09:14:54.312Z,22.10
2023-05-05T09:15:54.310Z,22.13
2023-05-05T09:16:54.365Z,22.19
2023-05-05T09:17:54.328Z,22.19
2023-05-05T09:18:54.323Z,22.19
2023-05-05T09:19:54.406Z,22.17
2023-05-05T09:20:54.327Z,22.28
2023-05-05T09:21:54.324Z,22.20
2023-05-05T09:22:54.319Z,22.16
2023-05-05T09:23:54.561Z,22.19
2023-05-05T09:24:54.325Z,22.16
2023-05-05T09:25:54.337Z,22.22
2023-05-05T09:26:54.330Z,22.23
2023-05-05T09:27:54.334Z,22.19
2023-05-05T09:28:54.338Z,22.22
2023-05-05T09:29:54.332Z,22.14
2023-05-05T09:30:54.363Z,22.22
2023-05-05T09:31:54.341Z,22.22
2023-05-05T09:32:54.551Z,22.19
2023-05-05T09:33:54.352Z,22.27
2023-05-05T09:34:54.354Z,22.37
2023-05-05T09:35:54.445Z,22.37
2023-05-05T09:36:54.358Z,22.39
2023-05-05T09:37:54.352Z,22.39
2023-05-05T09:38:54.351Z,22.41
2023-05-05T09:39:54.374Z,22.38
2023-05-05T09:40:54.368Z,22.39
2023-05-05T09:41:54.374Z,22.49
2023-05-05T09:42:54.363Z,22.35
2023-05-05T09:43:54.365Z,22.39
2023-05-05T09:44:54.365Z,22.44
2023-05-05T09:45:54.394Z,22.35
2023-05-05T09:46:54.371Z,22.34
2023-05-05T09:47:59.092Z,22.27
2023-05-05T09:48:54.381Z,22.25
2023-05-05T09:49:54.376Z,22.25
2023-05-05T09:50:54.393Z,22.22
2023-05-05T09:51:54.572Z,22.16
2023-05-05T09:52:54.407Z,22.28
2023-05-05T09:53:54.385Z,22.19
2023-05-05T09:54:54.459Z,22.19
2023-05-05T09:55:54.400Z,22.20
2023-05-05T09:56:54.384Z,22.29
2023-05-05T09:57:54.407Z,22.28
2023-05-05T09:58:54.388Z,22.29
2023-05-05T09:59:54.390Z,22.28
2023-05-05T10:00:54.400Z,22.20
2023-05-05T10:01:54.413Z,22.25
2023-05-05T10:02:54.421Z,22.20
2023-05-05T10:03:54.398Z,22.22
2023-05-05T10:04:54.456Z,22.22
2023-05-05T10:05:54.401Z,22.27
2023-05-05T10:06:54.403Z,22.22
2023-05-05T10:07:54.500Z,22.23
2023-05-05T10:08:54.426Z,22.22
2023-05-05T10:09:54.409Z,22.27
2023-05-05T10:10:54.409Z,22.31
2023-05-05T10:11:54.410Z,22.23
2023-05-05T10:12:54.510Z,22.28
2023-05-05T10:13:54.416Z,22.23
2023-05-05T10:14:54.421Z,21.59
2023-05-05T10:15:54.498Z,21.54
2023-05-05T10:16:54.432Z,21.54
2023-05-05T10:18:05.792Z,21.75
2023-05-05T10:18:54.426Z,21.79
2023-05-05T10:19:54.424Z,21.94
2023-05-05T10:20:54.431Z,22.02
2023-05-05T10:21:54.435Z,22.10
2023-05-05T10:22:54.439Z,22.14
2023-05-05T10:23:54.456Z,22.06
2023-05-05T10:24:54.439Z,22.20
2023-05-05T10:25:54.454Z,22.17
2023-05-05T10:26:54.439Z,22.28
2023-05-05T10:27:54.442Z,22.27
2023-05-05T10:28:54.448Z,22.28
2023-05-05T10:29:54.448Z,22.29
2023-05-05T10:30:54.452Z,22.27
2023-05-05T10:31:54.798Z,22.23
2023-05-05T10:33:07.816Z,22.25
2023-05-05T10:33:54.576Z,22.28
2023-05-05T10:34:54.457Z,22.25
2023-05-05T10:35:54.462Z,22.28
2023-05-05T10:36:54.461Z,22.37
2023-05-05T10:37:54.470Z,22.32
2023-05-05T10:38:54.467Z,22.41
2023-05-05T10:39:54.567Z,22.38
2023-05-05T10:40:54.468Z,22.43
2023-05-05T10:41:54.476Z,22.38
2023-05-05T10:42:54.479Z,22.38
2023-05-05T10:43:54.481Z,22.41
2023-05-05T10:44:54.514Z,22.46
2023-05-05T10:45:54.612Z,22.41
2023-05-05T10:46:54.496Z,22.39
2023-05-05T10:47:54.530Z,22.37
2023-05-05T10:48:54.592Z,22.34
2023-05-05T10:49:54.515Z,22.29
2023-05-05T10:50:54.496Z,22.29
2023-05-05T10:51:54.499Z,22.31
2023-05-05T10:52:54.496Z,22.20
2023-05-05T10:53:54.529Z,22.27
2023-05-05T10:54:54.500Z,22.25
2023-05-05T10:55:54.600Z,22.25
2023-05-05T10:56:54.502Z,22.27
2023-05-05T10:57:54.509Z,22.17
2023-05-05T10:59:00.239Z,22.25
2023-05-05T10:59:54.527Z,22.19
2023-05-05T11:00:54.546Z,22.25
2023-05-05T11:01:54.512Z,22.16
2023-05-05T11:02:54.534Z,22.27
2023-05-05T11:03:54.587Z,22.20
2023-05-05T11:04:54.525Z,22.16
2023-05-05T11:05:54.520Z,22.19
2023-05-05T11:06:54.527Z,22.27
2023-05-05T11:07:54.531Z,22.25
2023-05-05T11:08:54.566Z,22.22
2023-05-05T11:09:54.536Z,22.28
2023-05-05T11:10:54.533Z,22.25
2023-05-05T11:11:54.624Z,22.28
2023-05-05T11:12:54.579Z,22.27
2023-05-05T11:13:54.543Z,22.39
2023-05-05T11:14:54.541Z,22.41
2023-05-05T11:15:54.543Z,22.41
2023-05-05T11:16:54.624Z,22.41
2023-05-05T11:17:54.663Z,22.43
2023-05-05T11:18:54.550Z,22.35
2023-05-05T11:19:54.545Z,22.43
2023-05-05T11:20:54.551Z,22.39
2023-05-05T11:21:54.549Z,22.39
2023-05-05T11:22:54.559Z,22.25
2023-05-05T11:23:54.564Z,22.43
2023-05-05T11:24:54.567Z,22.41
2023-05-05T11:25:54.561Z,22.37
2023-05-05T11:26:54.562Z,22.25
2023-05-05T11:27:54.666Z,22.22
2023-05-05T11:28:54.565Z,22.32
2023-05-05T11:29:54.577Z,22.28
2023-05-05T11:30:54.602Z,22.37
2023-05-05T11:31:54.577Z,22.27
2023-05-05T11:32:54.593Z,22.43
2023-05-05T11:33:54.577Z,22.25
2023-05-05T11:34:54.583Z,22.28
2023-05-05T11:35:54.588Z,22.27
2023-05-05T11:36:54.834Z,22.29
2023-05-05T11:37:54.579Z,22.31
2023-05-05T11:38:54.585Z,22.31
2023-05-05T11:39:54.586Z,22.31
2023-05-05T11:40:54.590Z,22.25
2023-05-05T11:41:54.605Z,22.35
2023-05-05T11:42:54.588Z,22.34
2023-05-05T11:43:54.636Z,22.39
2023-05-05T11:44:54.615Z,22.34
2023-05-05T11:45:54.677Z,22.39
2023-05-05T11:46:54.602Z,22.41
2023-05-05T11:47:55.073Z,22.32
2023-05-05T11:48:54.596Z,22.41
2023-05-05T11:49:54.604Z,22.34
2023-05-05T11:50:54.612Z,22.38
2023-05-05T11:51:54.607Z,22.35
2023-05-05T11:52:54.629Z,22.35
2023-05-05T11:53:54.623Z,22.32
2023-05-05T11:54:54.614Z,22.32
2023-05-05T11:55:54.620Z,22.35
2023-05-05T11:56:54.670Z,22.34
2023-05-05T11:57:54.628Z,22.25
2023-05-05T11:58:54.622Z,22.23
2023-05-05T11:59:54.815Z,22.25
2023-05-05T12:00:54.630Z,22.38
2023-05-05T12:01:54.624Z,22.37
2023-05-05T12:02:54.724Z,22.38
2023-05-05T12:03:54.857Z,22.39
2023-05-05T12:04:54.671Z,22.37
2023-05-05T12:05:54.632Z,22.35
2023-05-05T12:06:54.639Z,22.38
2023-05-05T12:07:54.640Z,22.38
2023-05-05T12:08:54.671Z,22.38
2023-05-05T12:09:54.645Z,22.38
2023-05-05T12:10:54.650Z,22.41
2023-05-05T12:11:54.663Z,22.41
2023-05-05T12:12:55.675Z,22.35
2023-05-05T12:13:54.652Z,22.39
2023-05-05T12:14:54.649Z,22.37
2023-05-05T12:15:54.863Z,22.35
2023-05-05T12:16:54.658Z,22.35
2023-05-05T12:17:54.688Z,22.39
2023-05-05T12:18:54.658Z,22.41
2023-05-05T12:19:54.671Z,22.43
2023-05-05T12:20:54.669Z,22.39
2023-05-05T12:21:54.717Z,22.44
2023-05-05T12:22:54.671Z,22.41
2023-05-05T12:23:54.673Z,22.39
2023-05-05T12:24:55.099Z,22.44
2023-05-05T12:25:54.675Z,22.44
2023-05-05T12:26:54.684Z,22.50
2023-05-05T12:27:54.675Z,22.43
2023-05-05T12:28:54.681Z,22.39
2023-05-05T12:29:54.684Z,22.35
2023-05-05T12:30:55.220Z,22.44
2023-05-05T12:31:54.832Z,22.44
2023-05-05T12:32:54.748Z,22.41
2023-05-05T12:33:54.690Z,22.37
2023-05-05T12:34:54.706Z,22.32
2023-05-05T12:35:54.701Z,22.39
2023-05-05T12:36:54.698Z,22.35
2023-05-05T12:37:54.705Z,22.28
2023-05-05T12:38:54.704Z,22.25
2023-05-05T12:39:54.714Z,22.43
2023-05-05T12:40:54.702Z,22.41
2023-05-05T12:41:54.715Z,22.41
2023-05-05T12:42:54.713Z,22.25
2023-05-05T12:43:54.715Z,22.25
2023-05-05T12:44:54.724Z,22.23
2023-05-05T12:45:54.777Z,22.35
2023-05-05T12:46:54.728Z,22.32
2023-05-05T12:47:54.775Z,22.31
2023-05-05T12:48:54.732Z,22.25
2023-05-05T12:49:54.733Z,22.31
2023-05-05T12:50:54.760Z,22.34
2023-05-05T12:51:54.754Z,22.35
2023-05-05T12:52:54.734Z,22.20